Time;durP1;ratioP1;P1;durP2;ratioP2;P2;SDS_P1;SDS_P2;PMS_P1;PMS_P2;Temp;Humidity;BMP_temperature;BMP_pressure;BME280_temperature;BME280_humidity;BME280_pressure;Samples;Min_cycle;Max_cycle;Signal;HPM_P1;HPM_P2
2021/10/05 00:00:52;;;;;;;;;;;12.50;1.00;;;;;;5050441;28;19980;-61
2021/10/05 00:03:17;;;;;;;;;;;12.50;1.00;;;;;;5049914;28;19909;-61
2021/10/05 00:05:43;;;;;;;;;;;12.50;1.00;;;;;;5050280;28;20257;-62
2021/10/05 00:08:08;;;;;;;;;;;12.50;1.00;;;;;;5050946;28;20020;-59
2021/10/05 00:10:34;;;;;;;;;;;12.50;1.00;;;;;;5058269;28;20503;-62
2021/10/05 00:12:59;;;;;;;;;;;12.60;1.00;;;;;;5069757;28;19915;-62
2021/10/05 00:15:25;;;;;;;;;;;12.50;1.00;;;;;;5069995;28;19956;-62
2021/10/05 00:17:51;;;;;;;;;;;12.60;1.00;;;;;;5066310;28;20013;-62
2021/10/05 00:20:16;;;;;;;;;;;12.60;1.00;;;;;;5061702;28;19913;-62
2021/10/05 00:22:42;;;;;;;;;;;12.60;1.00;;;;;;5069777;28;19908;-62
2021/10/05 00:25:08;;;;;;;;;;;12.60;1.00;;;;;;5054380;28;20428;-61
2021/10/05 00:27:34;;;;;;;;;;;12.60;1.00;;;;;;5050551;28;19921;-61
2021/10/05 00:29:59;;;;;;;;;;;12.50;1.00;;;;;;5049327;28;19943;-61
2021/10/05 00:32:25;;;;;;;;;;;12.50;1.00;;;;;;5048445;28;19919;-61
2021/10/05 00:34:51;;;;;;;;;;;12.50;1.00;;;;;;5050306;28;19991;-61
2021/10/05 00:37:16;;;;;;;;;;;12.50;1.00;;;;;;5058267;28;19974;-61
2021/10/05 00:39:42;;;;;;;;;;;12.50;1.00;;;;;;5069558;28;19909;-62
2021/10/05 00:42:08;;;;;;;;;;;12.50;1.00;;;;;;5068760;28;19958;-62
2021/10/05 00:44:35;;;;;;;;;;;12.50;1.00;;;;;;5069629;28;19908;-62
2021/10/05 00:47:05;;;;;;;;;;;12.40;1.00;;;;;;5069070;28;19917;-61
2021/10/05 00:49:31;;;;;;;;;;;12.40;1.00;;;;;;5069782;28;19939;-61
2021/10/05 00:51:59;;;;;;;;;;;12.40;1.00;;;;;;5069357;28;19965;-62
2021/10/05 00:54:25;;;;;;;;;;;12.40;1.00;;;;;;5058849;28;20289;-62
2021/10/05 00:56:50;;;;;;;;;;;12.50;1.00;;;;;;5050000;28;19909;-61
2021/10/05 00:59:16;;;;;;;;;;;12.50;1.00;;;;;;5048726;28;19992;-61
2021/10/05 01:01:41;;;;;;;;;;;12.50;1.00;;;;;;5049196;28;19992;-66
2021/10/05 01:04:06;;;;;;;;;;;12.40;1.00;;;;;;5048233;28;20347;-61
2021/10/05 01:06:33;;;;;;;;;;;12.40;1.00;;;;;;5049920;28;20017;-61
2021/10/05 01:08:59;;;;;;;;;;;12.40;1.00;;;;;;5049083;28;20418;-61
2021/10/05 01:11:24;;;;;;;;;;;12.40;1.00;;;;;;5065329;28;19913;-61
2021/10/05 01:13:50;;;;;;;;;;;12.40;1.00;;;;;;5068270;28;19912;-62
2021/10/05 01:16:19;;;;;;;;;;;12.40;1.00;;;;;;5069208;28;19917;-61
2021/10/05 01:18:47;;;;;;;;;;;12.40;1.00;;;;;;5068950;28;19958;-61
2021/10/05 01:21:13;;;;;;;;;;;12.40;1.00;;;;;;5069858;28;19989;-61
2021/10/05 01:23:38;;;;;;;;;;;12.40;1.00;;;;;;5065135;28;20004;-61
2021/10/05 01:26:04;;;;;;;;;;;12.40;1.00;;;;;;5049446;28;19917;-62
2021/10/05 01:28:30;;;;;;;;;;;12.40;1.00;;;;;;5049047;28;19913;-61
2021/10/05 01:30:56;;;;;;;;;;;12.40;1.00;;;;;;5049201;28;19944;-60
2021/10/05 01:33:23;;;;;;;;;;;12.40;1.00;;;;;;5049346;28;19908;-62
2021/10/05 01:35:49;;;;;;;;;;;12.40;1.00;;;;;;5049737;28;20030;-61
2021/10/05 01:38:15;;;;;;;;;;;12.40;1.00;;;;;;5065854;28;20444;-61
2021/10/05 01:40:40;;;;;;;;;;;12.30;1.00;;;;;;5068460;28;20439;-61
2021/10/05 01:43:06;;;;;;;;;;;12.30;1.00;;;;;;5068965;28;19916;-61
2021/10/05 01:45:31;;;;;;;;;;;12.30;1.00;;;;;;5069115;28;19912;-61
2021/10/05 01:47:57;;;;;;;;;;;12.30;1.00;;;;;;5068464;28;20444;-60
2021/10/05 01:50:22;;;;;;;;;;;12.30;1.00;;;;;;5069450;28;19909;-60
2021/10/05 01:52:49;;;;;;;;;;;12.30;1.00;;;;;;5068903;28;19994;-60
2021/10/05 01:55:16;;;;;;;;;;;12.30;1.00;;;;;;5059448;28;20079;-61
2021/10/05 01:57:42;;;;;;;;;;;12.30;1.00;;;;;;5067949;28;19931;-60
2021/10/05 02:00:08;;;;;;;;;;;12.30;1.00;;;;;;5068951;28;19912;-61
2021/10/05 02:02:33;;;;;;;;;;;12.40;1.00;;;;;;5067707;28;19913;-62
2021/10/05 02:04:59;;;;;;;;;;;12.40;1.00;;;;;;5069003;28;20584;-61
2021/10/05 02:07:24;;;;;;;;;;;12.40;1.00;;;;;;5069142;28;20008;-62
2021/10/05 02:09:50;;;;;;;;;;;12.40;1.00;;;;;;5066207;28;20010;-61
2021/10/05 02:12:16;;;;;;;;;;;12.40;1.00;;;;;;5051490;28;20020;-63
2021/10/05 02:14:45;;;;;;;;;;;12.50;1.00;;;;;;5052001;28;19909;-62
2021/10/05 02:17:11;;;;;;;;;;;12.50;1.00;;;;;;5051970;28;19916;-61
2021/10/05 02:19:37;;;;;;;;;;;12.50;1.00;;;;;;5052865;28;19909;-61
2021/10/05 02:22:03;;;;;;;;;;;12.40;1.00;;;;;;5052049;28;20339;-62
2021/10/05 02:26:56;;;;;;;;;;;12.40;1.00;;;;;;5052088;28;20300;-61
2021/10/05 02:29:22;;;;;;;;;;;12.40;1.00;;;;;;5051988;28;19916;-60
2021/10/05 02:31:48;;;;;;;;;;;12.40;1.00;;;;;;5051034;28;20003;-61
2021/10/05 02:34:13;;;;;;;;;;;12.40;1.00;;;;;;5051989;28;20012;-62
2021/10/05 02:36:39;;;;;;;;;;;12.40;1.00;;;;;;5054837;28;20349;-59
2021/10/05 02:39:05;;;;;;;;;;;12.40;1.00;;;;;;5071053;28;20004;-60
2021/10/05 02:41:31;;;;;;;;;;;12.40;1.00;;;;;;5071714;28;20010;-59
2021/10/05 02:43:56;;;;;;;;;;;12.50;1.00;;;;;;5070413;28;20241;-60
2021/10/05 02:46:22;;;;;;;;;;;12.50;1.00;;;;;;5070851;28;19935;-60
2021/10/05 02:48:47;;;;;;;;;;;12.50;1.00;;;;;;5070900;28;19916;-60
2021/10/05 02:51:13;;;;;;;;;;;12.60;1.00;;;;;;5071567;28;20284;-59
2021/10/05 02:53:38;;;;;;;;;;;12.60;1.00;;;;;;5066177;28;19970;-61
2021/10/05 02:56:04;;;;;;;;;;;12.60;1.00;;;;;;5051763;28;19924;-62
2021/10/05 02:58:29;;;;;;;;;;;12.60;1.00;;;;;;5051739;28;19920;-61
2021/10/05 03:00:55;;;;;;;;;;;12.60;1.00;;;;;;5050967;28;19913;-61
2021/10/05 03:03:20;;;;;;;;;;;12.60;1.00;;;;;;5050726;28;19908;-61
2021/10/05 03:05:46;;;;;;;;;;;12.60;1.00;;;;;;5051404;28;19913;-61
2021/10/05 03:08:11;;;;;;;;;;;12.60;1.00;;;;;;5052008;28;19908;-62
2021/10/05 03:10:37;;;;;;;;;;;12.60;1.00;;;;;;5059276;28;20001;-62
2021/10/05 03:13:03;;;;;;;;;;;12.60;1.00;;;;;;5070124;28;20332;-61
2021/10/05 03:15:29;;;;;;;;;;;12.60;1.00;;;;;;5071484;28;19909;-61
2021/10/05 03:17:55;;;;;;;;;;;12.60;1.00;;;;;;5065926;28;19931;-65
2021/10/05 03:20:20;;;;;;;;;;;12.60;1.00;;;;;;5063055;28;19919;-62
2021/10/05 03:22:46;;;;;;;;;;;12.60;1.00;;;;;;5070577;28;19912;-61
2021/10/05 03:25:11;;;;;;;;;;;12.60;1.00;;;;;;5054735;28;19936;-61
2021/10/05 03:27:37;;;;;;;;;;;12.60;1.00;;;;;;5052378;28;20373;-61
2021/10/05 03:30:03;;;;;;;;;;;12.60;1.00;;;;;;5051146;28;20558;-59
2021/10/05 03:32:29;;;;;;;;;;;12.60;1.00;;;;;;5049770;28;19995;-61
2021/10/05 03:34:54;;;;;;;;;;;12.60;1.00;;;;;;5050222;28;20044;-60
2021/10/05 03:37:20;;;;;;;;;;;12.60;1.00;;;;;;5059907;28;19912;-61
2021/10/05 03:39:45;;;;;;;;;;;12.60;1.00;;;;;;5069058;28;19952;-61
2021/10/05 03:42:11;;;;;;;;;;;12.60;1.00;;;;;;5070190;28;19940;-61
2021/10/05 03:44:36;;;;;;;;;;;12.60;1.00;;;;;;5070507;28;19995;-61
2021/10/05 03:47:02;;;;;;;;;;;12.60;1.00;;;;;;5069820;28;20017;-60
2021/10/05 03:49:28;;;;;;;;;;;12.60;1.00;;;;;;5071033;28;19912;-61
2021/10/05 03:51:53;;;;;;;;;;;12.60;1.00;;;;;;5070463;28;20130;-60
2021/10/05 03:54:19;;;;;;;;;;;12.60;1.00;;;;;;5060351;28;19970;-61
2021/10/05 03:56:44;;;;;;;;;;;12.60;1.00;;;;;;5050881;28;19962;-60
2021/10/05 03:59:15;;;;;;;;;;;12.50;1.00;;;;;;5050473;28;19940;-61
2021/10/05 04:01:43;;;;;;;;;;;12.50;1.00;;;;;;5048733;28;19999;-63
2021/10/05 04:04:09;;;;;;;;;;;12.60;1.00;;;;;;5050184;28;19909;-62
2021/10/05 04:06:35;;;;;;;;;;;12.60;1.00;;;;;;5050846;28;19913;-61
2021/10/05 04:09:03;;;;;;;;;;;12.60;1.00;;;;;;5050364;28;19917;-62
2021/10/05 04:11:29;;;;;;;;;;;12.60;1.00;;;;;;5066285;28;19916;-62
2021/10/05 04:13:55;;;;;;;;;;;12.70;1.00;;;;;;5068419;28;19909;-61
2021/10/05 04:16:21;;;;;;;;;;;12.70;1.00;;;;;;5070667;28;19908;-62
2021/10/05 04:18:46;;;;;;;;;;;12.70;1.00;;;;;;5070866;28;19915;-62
2021/10/05 04:21:12;;;;;;;;;;;12.60;1.00;;;;;;5070883;28;19912;-61
2021/10/05 04:23:37;;;;;;;;;;;12.60;1.00;;;;;;5066390;28;19913;-62
2021/10/05 04:26:03;;;;;;;;;;;12.60;1.00;;;;;;5048042;28;19917;-61
2021/10/05 04:28:28;;;;;;;;;;;12.70;1.00;;;;;;5048651;28;20393;-62
2021/10/05 04:30:53;;;;;;;;;;;12.70;1.00;;;;;;5049965;28;20354;-60
2021/10/05 04:33:19;;;;;;;;;;;12.70;1.00;;;;;;5048616;28;19909;-62
2021/10/05 04:35:44;;;;;;;;;;;12.70;1.00;;;;;;5049731;28;19909;-61
2021/10/05 04:38:10;;;;;;;;;;;12.70;1.00;;;;;;5060339;28;20420;-61
2021/10/05 04:40:35;;;;;;;;;;;12.70;1.00;;;;;;5049163;28;19927;-61
2021/10/05 04:43:01;;;;;;;;;;;12.60;1.00;;;;;;5049008;28;19913;-62
2021/10/05 04:45:26;;;;;;;;;;;12.60;1.00;;;;;;5048959;28;19927;-61
2021/10/05 04:47:52;;;;;;;;;;;12.60;1.00;;;;;;5046958;28;20003;-61
2021/10/05 04:50:17;;;;;;;;;;;12.70;1.00;;;;;;5048625;28;19927;-61
2021/10/05 04:52:43;;;;;;;;;;;12.70;1.00;;;;;;5049330;28;19928;-62
2021/10/05 04:55:09;;;;;;;;;;;12.70;1.00;;;;;;5057881;28;19913;-61
2021/10/05 04:57:34;;;;;;;;;;;12.60;1.00;;;;;;5067191;28;19908;-61
2021/10/05 05:00:00;;;;;;;;;;;12.60;1.00;;;;;;5069748;28;19912;-61
2021/10/05 05:02:25;;;;;;;;;;;12.60;1.00;;;;;;5067886;28;20009;-61
2021/10/05 05:04:51;;;;;;;;;;;12.60;1.00;;;;;;5069810;28;19916;-62
2021/10/05 05:07:16;;;;;;;;;;;12.60;1.00;;;;;;5069593;28;19913;-62
2021/10/05 05:09:42;;;;;;;;;;;12.50;1.00;;;;;;5065624;28;19959;-62
2021/10/05 05:12:07;;;;;;;;;;;12.60;1.00;;;;;;5045482;28;19913;-64
2021/10/05 05:14:33;;;;;;;;;;;12.60;1.00;;;;;;5045212;28;20016;-64
2021/10/05 05:16:59;;;;;;;;;;;12.50;1.00;;;;;;5045253;28;20349;-64
2021/10/05 05:19:25;;;;;;;;;;;12.50;1.00;;;;;;5045486;28;20347;-64
2021/10/05 05:21:50;;;;;;;;;;;12.50;1.00;;;;;;5044628;28;20282;-64
2021/10/05 05:24:16;;;;;;;;;;;12.60;1.00;;;;;;5045860;28;20058;-63
2021/10/05 05:26:41;;;;;;;;;;;12.50;1.00;;;;;;5045203;28;19929;-61
2021/10/05 05:29:07;;;;;;;;;;;12.50;1.00;;;;;;5069162;22;19924;-61
2021/10/05 05:31:33;;;;;;;;;;;12.60;1.00;;;;;;5044506;28;20399;-65
2021/10/05 05:33:58;;;;;;;;;;;12.60;1.00;;;;;;5044902;28;19913;-61
2021/10/05 05:36:24;;;;;;;;;;;12.60;1.00;;;;;;5046713;28;20111;-63
2021/10/05 05:38:49;;;;;;;;;;;12.60;1.00;;;;;;5065281;28;19970;-64
2021/10/05 05:41:15;;;;;;;;;;;12.60;1.00;;;;;;5066165;28;19909;-61
2021/10/05 05:43:40;;;;;;;;;;;12.70;1.00;;;;;;5063941;28;20536;-64
2021/10/05 05:46:06;;;;;;;;;;;12.60;1.00;;;;;;5057473;28;20591;-64
2021/10/05 05:48:31;;;;;;;;;;;12.60;1.00;;;;;;5041655;28;19928;-64
2021/10/05 05:50:57;;;;;;;;;;;12.60;1.00;;;;;;5050498;28;20019;-60
2021/10/05 05:53:22;;;;;;;;;;;12.60;1.00;;;;;;5037745;28;19919;-63
2021/10/05 05:55:49;;;;;;;;;;;12.70;1.00;;;;;;5048241;28;20282;-64
2021/10/05 05:58:16;;;;;;;;;;;12.60;1.00;;;;;;5036044;28;19913;-64
2021/10/05 06:00:42;;;;;;;;;;;12.60;1.00;;;;;;5038566;28;19927;-64
2021/10/05 06:03:10;;;;;;;;;;;12.60;1.00;;;;;;5045783;28;19913;-64
2021/10/05 06:05:36;;;;;;;;;;;12.60;1.00;;;;;;5040321;28;20530;-64
2021/10/05 06:08:02;;;;;;;;;;;12.70;1.00;;;;;;5060868;28;20451;-63
2021/10/05 06:10:27;;;;;;;;;;;12.70;1.00;;;;;;5056243;28;19917;-63
2021/10/05 06:12:53;;;;;;;;;;;12.70;1.00;;;;;;5057881;28;19913;-63
2021/10/05 06:15:19;;;;;;;;;;;12.70;1.00;;;;;;5053768;28;21123;-65
2021/10/05 06:17:45;;;;;;;;;;;12.70;1.00;;;;;;5055162;28;19924;-66
2021/10/05 06:20:12;;;;;;;;;;;12.70;1.00;;;;;;5048298;28;19964;-65
2021/10/05 06:22:38;;;;;;;;;;;12.70;1.00;;;;;;5050189;28;19939;-65
2021/10/05 06:25:05;;;;;;;;;;;12.70;1.00;;;;;;5054123;28;19912;-65
2021/10/05 06:27:30;;;;;;;;;;;12.70;1.00;;;;;;5056602;28;19923;-64
2021/10/05 06:29:58;;;;;;;;;;;12.80;1.00;;;;;;5051149;28;20401;-62
2021/10/05 06:32:24;;;;;;;;;;;12.80;1.00;;;;;;5042097;28;19925;-64
2021/10/05 06:34:50;;;;;;;;;;;12.80;1.00;;;;;;5043268;28;20373;-64
2021/10/05 06:37:16;;;;;;;;;;;12.80;1.00;;;;;;5057800;28;19920;-64
2021/10/05 06:39:41;;;;;;;;;;;12.80;1.00;;;;;;5033047;28;20007;-63
2021/10/05 06:42:07;;;;;;;;;;;12.80;1.00;;;;;;5039653;28;20074;-63
2021/10/05 06:44:32;;;;;;;;;;;12.80;1.00;;;;;;5039270;28;19923;-65
2021/10/05 06:46:58;;;;;;;;;;;12.80;1.00;;;;;;5033699;28;19921;-65
2021/10/05 06:49:23;;;;;;;;;;;12.80;1.00;;;;;;5045030;28;19917;-64
2021/10/05 06:51:49;;;;;;;;;;;12.70;1.00;;;;;;5040646;28;19917;-65
2021/10/05 06:54:14;;;;;;;;;;;12.80;1.00;;;;;;5041305;28;20000;-65
2021/10/05 06:56:40;;;;;;;;;;;12.80;1.00;;;;;;5036075;28;19913;-64
2021/10/05 06:59:05;;;;;;;;;;;12.90;1.00;;;;;;5037449;28;20003;-65
2021/10/05 07:01:31;;;;;;;;;;;13.00;1.00;;;;;;5033237;28;19959;-65
2021/10/05 07:03:58;;;;;;;;;;;13.00;1.00;;;;;;5037449;28;20012;-64
2021/10/05 07:06:24;;;;;;;;;;;13.00;1.00;;;;;;5039594;28;20015;-65
2021/10/05 07:08:50;;;;;;;;;;;13.10;1.00;;;;;;5039578;28;20024;-64
2021/10/05 07:11:15;;;;;;;;;;;13.20;1.00;;;;;;5045325;28;19917;-64
2021/10/05 07:13:41;;;;;;;;;;;13.20;1.00;;;;;;5038795;28;20340;-65
2021/10/05 07:16:06;;;;;;;;;;;13.30;1.00;;;;;;5039216;28;19971;-64
2021/10/05 07:18:33;;;;;;;;;;;13.40;1.00;;;;;;5035963;28;19923;-65
2021/10/05 07:20:59;;;;;;;;;;;13.40;1.00;;;;;;5042882;28;20393;-64
2021/10/05 07:23:25;;;;;;;;;;;13.40;1.00;;;;;;5033438;28;19999;-65
2021/10/05 07:25:50;;;;;;;;;;;13.40;1.00;;;;;;5045251;28;20019;-64
2021/10/05 07:28:16;;;;;;;;;;;13.40;1.00;;;;;;5041688;28;19913;-64
2021/10/05 07:30:43;;;;;;;;;;;13.40;1.00;;;;;;5039503;28;19975;-64
2021/10/05 07:33:09;;;;;;;;;;;13.40;1.00;;;;;;5044811;28;19975;-65
2021/10/05 07:35:35;;;;;;;;;;;13.40;1.00;;;;;;5046798;28;19917;-64
2021/10/05 07:38:00;;;;;;;;;;;13.40;1.00;;;;;;5044450;28;20392;-64
2021/10/05 07:40:26;;;;;;;;;;;13.50;1.00;;;;;;5039199;28;19913;-64
2021/10/05 07:42:53;;;;;;;;;;;13.50;1.00;;;;;;5045974;28;19917;-65
2021/10/05 07:45:19;;;;;;;;;;;13.60;1.00;;;;;;5036294;28;19913;-64
2021/10/05 07:47:44;;;;;;;;;;;13.70;1.00;;;;;;5045133;28;20415;-65
2021/10/05 07:50:11;;;;;;;;;;;13.80;1.00;;;;;;5041770;28;19913;-64
2021/10/05 07:52:36;;;;;;;;;;;13.90;1.00;;;;;;5036246;28;19917;-63
2021/10/05 07:55:02;;;;;;;;;;;14.00;1.00;;;;;;5054414;28;19916;-64
2021/10/05 07:57:28;;;;;;;;;;;14.00;1.00;;;;;;5052220;28;19924;-64
2021/10/05 07:59:53;;;;;;;;;;;14.20;1.00;;;;;;5031899;28;19913;-65
2021/10/05 08:02:19;;;;;;;;;;;14.20;99.90;;;;;;5044290;28;20012;-63
2021/10/05 08:04:44;;;;;;;;;;;14.30;99.90;;;;;;5031052;28;20055;-65
2021/10/05 08:07:10;;;;;;;;;;;14.40;99.90;;;;;;5037595;28;20013;-64
2021/10/05 08:09:35;;;;;;;;;;;14.40;99.90;;;;;;5046377;28;20377;-64
2021/10/05 08:12:01;;;;;;;;;;;14.50;99.90;;;;;;5044533;28;19917;-64
2021/10/05 08:14:26;;;;;;;;;;;14.60;99.90;;;;;;5041488;28;20362;-64
2021/10/05 08:16:52;;;;;;;;;;;14.70;21.10;;;;;;5049880;28;19923;-64
2021/10/05 08:19:18;;;;;;;;;;;14.90;1.00;;;;;;5041752;28;19917;-63
2021/10/05 08:21:43;;;;;;;;;;;14.90;99.90;;;;;;5059729;28;20625;-65
2021/10/05 08:24:09;;;;;;;;;;;15.00;99.90;;;;;;5054975;28;19920;-65
2021/10/05 08:26:34;;;;;;;;;;;15.00;91.40;;;;;;5048020;28;19925;-64
2021/10/05 08:29:00;;;;;;;;;;;14.90;14.90;;;;;;5039715;28;19913;-63
2021/10/05 08:31:25;;;;;;;;;;;14.90;24.80;;;;;;5044517;28;20482;-62
2021/10/05 08:33:51;;;;;;;;;;;14.90;99.90;;;;;;5037932;28;19921;-63
2021/10/05 08:36:18;;;;;;;;;;;14.90;1.00;;;;;;5037097;28;20022;-64
2021/10/05 08:38:44;;;;;;;;;;;15.00;99.90;;;;;;5038594;28;19936;-63
2021/10/05 08:41:09;;;;;;;;;;;15.10;99.90;;;;;;5046220;28;19913;-64
2021/10/05 08:43:35;;;;;;;;;;;15.30;1.00;;;;;;5030086;28;19920;-64
2021/10/05 08:46:02;;;;;;;;;;;15.50;99.90;;;;;;5034342;28;20368;-65
2021/10/05 08:48:28;;;;;;;;;;;15.80;99.90;;;;;;5037825;28;19913;-64
2021/10/05 08:50:53;;;;;;;;;;;16.20;99.90;;;;;;5039824;28;20353;-63
2021/10/05 08:53:19;;;;;;;;;;;16.50;1.00;;;;;;5040402;28;19951;-64
2021/10/05 08:55:45;;;;;;;;;;;16.70;99.90;;;;;;5046890;28;19913;-63
2021/10/05 08:58:10;;;;;;;;;;;17.00;1.00;;;;;;5039438;28;19970;-64
2021/10/05 09:00:37;;;;;;;;;;;17.30;1.00;;;;;;5035503;28;20350;-63
2021/10/05 09:03:03;;;;;;;;;;;17.40;99.90;;;;;;5039784;28;19924;-64
2021/10/05 09:05:29;;;;;;;;;;;17.50;99.90;;;;;;5035224;28;19996;-64
2021/10/05 09:07:57;;;;;;;;;;;17.70;99.90;;;;;;5039855;28;19913;-63
2021/10/05 09:10:24;;;;;;;;;;;17.90;15.00;;;;;;5042713;28;20230;-65
2021/10/05 09:12:49;;;;;;;;;;;18.20;1.00;;;;;;5037891;28;19936;-64
2021/10/05 09:15:16;;;;;;;;;;;19.30;1.00;;;;;;5038196;28;19916;-64
2021/10/05 09:17:42;;;;;;;;;;;19.90;1.00;;;;;;5032808;28;19965;-64
2021/10/05 09:20:15;;;;;;;;;;;20.50;1.00;;;;;;5035090;28;20238;-64
2021/10/05 09:22:40;;;;;;;;;;;20.10;99.90;;;;;;5036949;28;19913;-64
2021/10/05 09:25:10;;;;;;;;;;;19.40;99.90;;;;;;5035885;28;20337;-64
2021/10/05 09:27:46;;;;;;;;;;;19.20;99.90;;;;;;5035222;28;20010;-63
2021/10/05 09:30:16;;;;;;;;;;;18.80;99.90;;;;;;5037974;28;20039;-64
2021/10/05 09:32:41;;;;;;;;;;;18.50;99.90;;;;;;5040941;28;19913;-65
2021/10/05 09:35:07;;;;;;;;;;;18.20;99.90;;;;;;5042294;28;19920;-64
2021/10/05 09:37:35;;;;;;;;;;;18.00;1.00;;;;;;5049684;28;20352;-64
2021/10/05 09:40:01;;;;;;;;;;;18.00;1.00;;;;;;5051720;28;19917;-64
2021/10/05 09:42:31;;;;;;;;;;;17.90;1.00;;;;;;5043659;28;19920;-64
2021/10/05 09:45:00;;;;;;;;;;;17.60;1.00;;;;;;5048419;28;19917;-64
2021/10/05 09:47:33;;;;;;;;;;;17.30;1.00;;;;;;5046593;28;20000;-64
2021/10/05 09:49:59;;;;;;;;;;;17.10;1.00;;;;;;5040489;28;19917;-64
2021/10/05 09:52:36;;;;;;;;;;;17.10;1.00;;;;;;5039974;28;19957;-66
2021/10/05 09:55:02;;;;;;;;;;;17.30;1.00;;;;;;5044456;28;20394;-63
2021/10/05 09:57:28;;;;;;;;;;;17.40;1.00;;;;;;5046692;28;19980;-65
2021/10/05 09:59:54;;;;;;;;;;;17.40;1.00;;;;;;5030636;28;19983;-65
2021/10/05 10:02:19;;;;;;;;;;;17.30;1.00;;;;;;5027691;28;19917;-65
2021/10/05 10:04:45;;;;;;;;;;;17.20;1.00;;;;;;5036710;28;19917;-65
2021/10/05 10:07:11;;;;;;;;;;;17.20;1.00;;;;;;5044283;28;19923;-65
2021/10/05 10:09:36;;;;;;;;;;;17.20;1.00;;;;;;5035663;28;19919;-65
2021/10/05 10:12:02;;;;;;;;;;;17.10;1.00;;;;;;5043080;28;19917;-65
2021/10/05 10:14:28;;;;;;;;;;;17.10;1.00;;;;;;5033424;28;20008;-65
2021/10/05 10:16:53;;;;;;;;;;;17.20;1.00;;;;;;5036121;28;20351;-63
2021/10/05 10:19:29;;;;;;;;;;;17.30;1.00;;;;;;5044539;28;19916;-65
2021/10/05 10:22:05;;;;;;;;;;;17.30;1.00;;;;;;5037621;28;19917;-66
2021/10/05 10:24:42;;;;;;;;;;;17.40;1.00;;;;;;5041650;28;19913;-66
2021/10/05 10:27:09;;;;;;;;;;;17.50;1.00;;;;;;5037538;28;20284;-67
2021/10/05 10:29:35;;;;;;;;;;;17.60;1.00;;;;;;5043056;28;20012;-66
2021/10/05 10:32:10;;;;;;;;;;;17.90;1.00;;;;;;5039907;28;20015;-67
2021/10/05 10:34:36;;;;;;;;;;;18.10;1.00;;;;;;5045250;28;20395;-67
2021/10/05 10:37:15;;;;;;;;;;;18.20;1.00;;;;;;5054013;28;20357;-65
2021/10/05 10:39:41;;;;;;;;;;;18.30;1.00;;;;;;5031787;28;19913;-64
2021/10/05 10:42:07;;;;;;;;;;;18.50;1.00;;;;;;5044920;28;20013;-66
2021/10/05 10:44:37;;;;;;;;;;;18.70;1.00;;;;;;5051360;28;20350;-66
2021/10/05 10:47:05;;;;;;;;;;;18.80;1.00;;;;;;5051104;28;19943;-66
2021/10/05 10:49:31;;;;;;;;;;;19.00;99.90;;;;;;5051535;28;19996;-63
2021/10/05 10:51:56;;;;;;;;;;;19.20;99.90;;;;;;5051207;28;20313;-65
2021/10/05 10:54:23;;;;;;;;;;;19.40;99.90;;;;;;5040128;28;20003;-67
2021/10/05 10:56:57;;;;;;;;;;;19.30;99.90;;;;;;5031011;28;19913;-68
2021/10/05 10:59:25;;;;;;;;;;;19.00;99.90;;;;;;5031279;28;19961;-64
2021/10/05 11:01:52;;;;;;;;;;;19.00;99.90;;;;;;5029835;28;20349;-65
2021/10/05 11:04:19;;;;;;;;;;;18.90;99.90;;;;;;5031176;28;19913;-65
2021/10/05 11:06:52;;;;;;;;;;;18.60;99.90;;;;;;5031394;28;20363;-64
2021/10/05 11:09:18;;;;;;;;;;;18.40;99.90;;;;;;5030902;28;19917;-67
2021/10/05 11:11:43;;;;;;;;;;;18.20;99.90;;;;;;5066281;28;19999;-64
2021/10/05 11:14:10;;;;;;;;;;;18.00;99.90;;;;;;5064310;28;19978;-66
2021/10/05 11:16:36;;;;;;;;;;;17.90;99.90;;;;;;5056128;28;19988;-66
2021/10/05 11:19:22;;;;;;;;;;;17.70;99.90;;;;;;5062259;28;19912;-66
2021/10/05 11:21:48;;;;;;;;;;;17.60;99.90;;;;;;5059646;28;20352;-66
2021/10/05 11:24:16;;;;;;;;;;;17.50;99.90;;;;;;5049841;28;19909;-66
2021/10/05 11:26:46;;;;;;;;;;;17.50;1.00;;;;;;5050985;28;19932;-67
2021/10/05 11:29:20;;;;;;;;;;;17.50;1.00;;;;;;5042550;28;19921;-66
2021/10/05 11:31:48;;;;;;;;;;;17.40;1.00;;;;;;5068228;22;19933;-63
2021/10/05 11:34:14;;;;;;;;;;;17.40;1.00;;;;;;5060589;28;19958;-65
2021/10/05 11:36:40;;;;;;;;;;;17.40;1.00;;;;;;5060521;28;20375;-64
2021/10/05 11:39:06;;;;;;;;;;;17.40;1.00;;;;;;5049891;28;19909;-65
2021/10/05 11:41:36;;;;;;;;;;;17.20;1.00;;;;;;5054725;28;20087;-64
2021/10/05 11:44:12;;;;;;;;;;;17.20;1.00;;;;;;5057109;28;19963;-64
2021/10/05 11:46:38;;;;;;;;;;;17.10;1.00;;;;;;5066571;28;19917;-62
2021/10/05 11:49:03;;;;;;;;;;;17.10;1.00;;;;;;5062419;28;19915;-64
2021/10/05 11:51:29;;;;;;;;;;;17.00;1.00;;;;;;5065427;28;19909;-64
2021/10/05 11:53:58;;;;;;;;;;;16.80;1.00;;;;;;5066312;28;19951;-64
2021/10/05 11:56:24;;;;;;;;;;;16.70;1.00;;;;;;5058822;28;20301;-65
2021/10/05 11:58:51;;;;;;;;;;;16.80;1.00;;;;;;5061380;28;20027;-64
2021/10/05 12:01:18;;;;;;;;;;;16.80;1.00;;;;;;5069872;28;19913;-63
2021/10/05 12:03:44;;;;;;;;;;;16.80;1.00;;;;;;5069027;28;19916;-65
2021/10/05 12:06:10;;;;;;;;;;;16.80;1.00;;;;;;5066513;28;20486;-65
2021/10/05 12:08:45;;;;;;;;;;;16.80;1.00;;;;;;5065061;28;19912;-65
2021/10/05 12:11:10;;;;;;;;;;;16.80;1.00;;;;;;5050548;28;20350;-65
2021/10/05 12:13:36;;;;;;;;;;;16.70;1.00;;;;;;5058226;28;19916;-63
2021/10/05 12:16:11;;;;;;;;;;;16.60;1.00;;;;;;5069466;28;19924;-64
2021/10/05 12:18:37;;;;;;;;;;;16.60;1.00;;;;;;5056680;28;19948;-61
2021/10/05 12:21:04;;;;;;;;;;;16.70;1.00;;;;;;5067347;28;20018;-64
2021/10/05 12:23:29;;;;;;;;;;;16.70;1.00;;;;;;5057543;28;19913;-64
2021/10/05 12:26:05;;;;;;;;;;;16.80;1.00;;;;;;5054344;28;19920;-64
2021/10/05 12:28:30;;;;;;;;;;;17.00;1.00;;;;;;5053436;28;19913;-63
2021/10/05 12:30:57;;;;;;;;;;;17.00;1.00;;;;;;5059864;28;19916;-65
2021/10/05 12:33:22;;;;;;;;;;;17.10;1.00;;;;;;5057764;28;19920;-65
2021/10/05 12:35:53;;;;;;;;;;;17.10;1.00;;;;;;5055287;28;19970;-63
2021/10/05 12:38:21;;;;;;;;;;;17.00;1.00;;;;;;5060591;28;19913;-63
2021/10/05 12:40:48;;;;;;;;;;;17.10;1.00;;;;;;5048666;28;19908;-62
2021/10/05 12:43:15;;;;;;;;;;;17.10;1.00;;;;;;5048805;28;19915;-62
2021/10/05 12:45:49;;;;;;;;;;;17.10;1.00;;;;;;5048902;28;19908;-65
2021/10/05 12:48:15;;;;;;;;;;;17.10;1.00;;;;;;5049001;28;19912;-64
2021/10/05 12:50:44;;;;;;;;;;;17.10;1.00;;;;;;5047526;28;19920;-64
2021/10/05 12:53:09;;;;;;;;;;;17.10;1.00;;;;;;5048465;28;19913;-66
2021/10/05 12:55:35;;;;;;;;;;;16.90;1.00;;;;;;5047775;28;19920;-65
2021/10/05 12:58:02;;;;;;;;;;;16.90;1.00;;;;;;5048761;28;19931;-62
2021/10/05 13:00:28;;;;;;;;;;;16.70;1.00;;;;;;5048527;28;19909;-65
2021/10/05 13:02:54;;;;;;;;;;;16.60;1.00;;;;;;5046932;28;19913;-66
2021/10/05 13:05:20;;;;;;;;;;;16.40;1.00;;;;;;5049156;28;19997;-64
2021/10/05 13:07:46;;;;;;;;;;;16.20;99.90;;;;;;5048545;28;19917;-64
2021/10/05 13:10:12;;;;;;;;;;;16.30;99.90;;;;;;5053626;28;19915;-66
2021/10/05 13:12:38;;;;;;;;;;;16.10;99.90;;;;;;5067390;28;20561;-65
2021/10/05 13:15:05;;;;;;;;;;;16.00;1.00;;;;;;5068641;28;20007;-64
2021/10/05 13:17:31;;;;;;;;;;;15.90;1.00;;;;;;5065001;28;20551;-63
2021/10/05 13:19:56;;;;;;;;;;;15.80;99.90;;;;;;5060780;28;19909;-64
2021/10/05 13:22:22;;;;;;;;;;;15.70;1.00;;;;;;5054575;28;19984;-64
2021/10/05 13:24:48;;;;;;;;;;;15.50;1.00;;;;;;5048204;28;19920;-65
2021/10/05 13:27:13;;;;;;;;;;;15.50;99.90;;;;;;5048366;28;20008;-64
2021/10/05 13:29:39;;;;;;;;;;;15.40;1.00;;;;;;5048747;28;19917;-64
2021/10/05 13:32:05;;;;;;;;;;;15.40;99.90;;;;;;5046739;28;19917;-64
2021/10/05 13:34:30;;;;;;;;;;;15.50;99.90;;;;;;5048356;28;19915;-64
2021/10/05 13:36:56;;;;;;;;;;;15.50;1.00;;;;;;5053518;28;19915;-65
2021/10/05 13:39:22;;;;;;;;;;;15.60;1.00;;;;;;5066850;28;20323;-65
2021/10/05 13:41:48;;;;;;;;;;;15.60;1.00;;;;;;5067735;28;19915;-65
2021/10/05 13:44:13;;;;;;;;;;;15.60;64.00;;;;;;5067613;28;20006;-64
2021/10/05 13:46:39;;;;;;;;;;;15.60;99.90;;;;;;5068031;28;20566;-65
2021/10/05 13:49:04;;;;;;;;;;;15.60;1.00;;;;;;5068053;28;19916;-62
2021/10/05 13:51:30;;;;;;;;;;;15.40;1.00;;;;;;5068762;28;19938;-60
2021/10/05 13:53:55;;;;;;;;;;;15.40;1.00;;;;;;5060655;28;20658;-65
2021/10/05 13:56:22;;;;;;;;;;;15.30;1.00;;;;;;5048277;28;19956;-66
2021/10/05 13:58:48;;;;;;;;;;;15.30;99.90;;;;;;5047897;28;19931;-65
2021/10/05 14:01:13;;;;;;;;;;;15.30;99.90;;;;;;5047511;28;19913;-65
2021/10/05 14:03:39;;;;;;;;;;;15.30;99.90;;;;;;5047288;28;20231;-65
2021/10/05 14:06:04;;;;;;;;;;;15.30;99.90;;;;;;5049855;28;20502;-64
2021/10/05 14:08:30;;;;;;;;;;;15.30;99.90;;;;;;5052616;28;19909;-64
2021/10/05 14:10:59;;;;;;;;;;;15.30;99.90;;;;;;5061122;28;19931;-65
2021/10/05 14:13:26;;;;;;;;;;;15.40;99.90;;;;;;5071514;28;20301;-65
2021/10/05 14:15:52;;;;;;;;;;;15.40;99.90;;;;;;5071205;28;19920;-65
2021/10/05 14:18:17;;;;;;;;;;;15.40;99.90;;;;;;5071734;28;19976;-65
2021/10/05 14:20:43;;;;;;;;;;;15.30;99.90;;;;;;5071821;28;19951;-63
2021/10/05 14:23:08;;;;;;;;;;;15.30;99.90;;;;;;5051440;28;19917;-65
2021/10/05 14:25:34;;;;;;;;;;;15.20;99.90;;;;;;5051203;28;20039;-65